Arrachart Airport

FMNA / DIE

Antisiranana, MG

Airport Type
medium airport

Climate Statistics

Average Temperature
29.6°C
Last 48 hours
Average Wind Speed
16.4 kt
Last 48 hours
Average Visibility
10 km
Last 48 hours
Average Pressure
-- hPa
Last 48 hours

Note: Averages calculated from last 48 hours of METAR observations (22 records).

Historical METAR Observations

Time Code Weather Temp Visibility Ceiling Wind METAR/SPECI
15:00 V 28°C 10+ km - 140° 12 kt METAR FMNA 021500Z 14012KT 9999 FEW020 28/20 Q1011
12:00 V 31°C 10+ km - 140° 18 kt METAR FMNA 021200Z 14018KT 9999 FEW020 31/21 Q1011
10:00 V 31°C 10+ km - 140° 22 kt METAR FMNA 021000Z 14022G33KT 9999 FEW020 31/21 Q1011
09:00 V 33°C 10+ km - 140° 24 kt METAR FMNA 020900Z 14024G35KT 9999 FEW020 33/20 Q1012
07:00 V 31°C 10+ km - 140° 23 kt METAR FMNA 020700Z 14023G33KT 9999 SCT020 31/21 Q1014
06:00 V 30°C 10+ km - 140° 22 kt METAR FMNA 020600Z 14022G32KT 9999 SCT020 30/21 Q1014
05:00 V 29°C 10+ km - 140° 22 kt METAR FMNA 020500Z 14022G32KT 9999 SCT020 29/22 Q1014
04:00 V 26°C 10+ km - 140° 14 kt METAR FMNA 020400Z 14014KT 9999 FEW020 26/21 Q1013
03:00 V 24°C 10+ km - 140° 14 kt METAR FMNA 020300Z 14014KT 9999 FEW020 24/20 Q1013
15:00 V 28°C 10+ km - 140° 14 kt METAR FMNA 011500Z 14014KT 9999 SCT020 28/22 Q1012
14:00 V 29°C 10+ km - 140° 16 kt METAR FMNA 011400Z 14016KT 9999 FEW020 29/22 Q1011
13:00 V 30°C 10+ km - 140° 10 kt METAR FMNA 011300Z 14010KT 9999 SCT020 30/22 Q1011
12:00 V 32°C 10+ km - 140° 16 kt METAR FMNA 011200Z 14016KT 9999 VCSH SCT020 32/21 Q1010
11:00 V 32°C 10+ km - 140° 14 kt METAR FMNA 011100Z 14014KT 9999 SCT020 32/22 Q1010
10:00 V 32°C 10+ km - 140° 16 kt METAR FMNA 011000Z 14016KT 9999 SCT020 32/22 Q1011
09:00 V 32°C 10+ km - 140° 21 kt METAR FMNA 010900Z 14021G31KT 9999 SCT020 32/20 Q1011
08:00 V 32°C 10+ km - 140° 16 kt METAR FMNA 010800Z 14016KT 9999 SCT020 32/21 Q1012
07:00 V 32°C 10+ km - 140° 18 kt METAR FMNA 010700Z 14018KT 9999 SCT020 32/22 Q1013
06:00 V 29°C 10+ km - 140° 16 kt METAR FMNA 010600Z 14016KT 9999 SCT020 29/22 Q1013
05:00 V 28°C 10+ km - 160° 14 kt METAR FMNA 010500Z 16014KT 9999 FEW020 28/22 Q1013
04:00 V 27°C 10+ km - 140° 10 kt METAR FMNA 010400Z 14010KT 9999 FEW020 27/21 Q1013
03:00 V 25°C 10+ km - 160° 8 kt METAR FMNA 010300Z 16008KT 9999 FEW020 25/23 Q1012